createdAt,value
2022-10-12T00:02:06.203Z,16.80
2022-10-12T00:04:33.001Z,17.00
2022-10-12T00:06:59.752Z,17.10
2022-10-12T00:09:26.463Z,17.58
2022-10-12T00:11:53.229Z,17.65
2022-10-12T00:14:19.956Z,17.05
2022-10-12T00:16:46.717Z,17.70
2022-10-12T00:19:14.230Z,17.83
2022-10-12T00:21:41.140Z,18.08
2022-10-12T00:24:08.977Z,17.85
2022-10-12T00:26:36.009Z,15.52
2022-10-12T00:29:03.458Z,17.15
2022-10-12T00:31:31.230Z,16.35
2022-10-12T00:34:01.102Z,16.00
2022-10-12T00:36:32.498Z,16.98
2022-10-12T00:38:59.901Z,15.13
2022-10-12T00:41:30.007Z,16.88
2022-10-12T00:43:58.463Z,17.63
2022-10-12T00:46:41.502Z,16.75
2022-10-12T00:49:13.601Z,17.60
2022-10-12T00:51:43.534Z,17.80
2022-10-12T00:54:14.279Z,17.20
2022-10-12T00:56:44.183Z,17.42
2022-10-12T00:59:25.977Z,19.52
2022-10-12T01:01:52.710Z,17.80
2022-10-12T01:04:19.497Z,18.40
2022-10-12T01:06:46.206Z,17.63
2022-10-12T01:09:14.056Z,18.30
2022-10-12T01:11:40.780Z,17.90
2022-10-12T01:14:08.074Z,20.10
2022-10-12T01:16:48.261Z,18.73
2022-10-12T01:19:33.065Z,18.20
2022-10-12T01:22:09.265Z,19.42
2022-10-12T01:24:44.776Z,19.95
2022-10-12T01:27:36.570Z,20.48
2022-10-12T01:30:13.934Z,18.77
2022-10-12T01:32:59.716Z,17.52
2022-10-12T01:35:49.963Z,17.15
2022-10-12T01:38:42.627Z,16.88
2022-10-12T01:41:16.532Z,17.75
2022-10-12T01:43:45.931Z,16.08
2022-10-12T01:46:15.672Z,14.57
2022-10-12T01:48:46.426Z,16.70
2022-10-12T01:51:18.953Z,16.33
2022-10-12T01:53:53.226Z,18.00
2022-10-12T01:56:29.298Z,17.73
2022-10-12T01:59:08.697Z,16.80
2022-10-12T02:02:04.072Z,17.55
2022-10-12T02:04:30.797Z,17.10
2022-10-12T02:07:07.035Z,16.27
2022-10-12T02:09:35.852Z,15.40
2022-10-12T02:12:09.307Z,14.95
2022-10-12T02:14:40.660Z,15.40
2022-10-12T02:17:11.376Z,16.50
2022-10-12T02:19:43.810Z,14.40
2022-10-12T02:22:11.839Z,16.20
2022-10-12T02:24:42.604Z,16.85
2022-10-12T02:27:11.625Z,16.67
2022-10-12T02:29:41.866Z,16.67
2022-10-12T02:32:18.443Z,16.25
2022-10-12T02:34:55.438Z,16.75
2022-10-12T02:37:44.363Z,15.95
2022-10-12T02:40:19.381Z,16.70
2022-10-12T02:43:11.170Z,16.15
2022-10-12T02:45:42.853Z,17.08
2022-10-12T02:48:11.963Z,16.98
2022-10-12T02:50:38.872Z,17.63
2022-10-12T02:53:07.290Z,17.25
2022-10-12T02:55:50.924Z,17.67
2022-10-12T02:58:18.336Z,15.77
2022-10-12T03:00:45.963Z,16.38
2022-10-12T03:03:12.987Z,16.85
2022-10-12T03:05:39.722Z,16.90
2022-10-12T03:08:06.456Z,17.80
2022-10-12T03:10:33.178Z,16.85
2022-10-12T03:12:59.970Z,18.17
2022-10-12T03:15:26.788Z,18.58
2022-10-12T03:17:53.566Z,18.10
2022-10-12T03:20:20.451Z,18.13
2022-10-12T03:22:47.404Z,19.77
2022-10-12T03:25:14.576Z,17.20
2022-10-12T03:27:41.393Z,18.17
2022-10-12T03:30:09.131Z,16.55
2022-10-12T03:32:35.869Z,17.45
2022-10-12T03:35:03.031Z,18.88
2022-10-12T03:37:30.062Z,20.83
2022-10-12T03:39:56.801Z,17.90
2022-10-12T03:42:23.592Z,17.75
2022-10-12T03:44:50.319Z,18.10
2022-10-12T03:47:17.051Z,19.00
2022-10-12T03:49:43.903Z,18.77
2022-10-12T03:52:10.675Z,19.83
2022-10-12T03:54:37.429Z,20.25
2022-10-12T03:57:04.188Z,18.75
2022-10-12T03:59:30.916Z,18.40
2022-10-12T04:01:57.754Z,18.15
2022-10-12T04:04:24.653Z,19.40
2022-10-12T04:06:51.462Z,17.48
2022-10-12T04:09:18.228Z,19.60
2022-10-12T04:11:44.990Z,18.83
2022-10-12T04:14:11.721Z,18.13
2022-10-12T04:16:38.755Z,16.67
2022-10-12T04:19:05.959Z,17.08
2022-10-12T04:21:32.710Z,16.42
2022-10-12T04:23:59.932Z,15.95
2022-10-12T04:26:26.747Z,16.45
2022-10-12T04:28:53.522Z,16.90
2022-10-12T04:31:20.311Z,17.50
2022-10-12T04:33:47.097Z,18.00
2022-10-12T04:36:13.847Z,17.20
2022-10-12T04:38:40.740Z,17.65
2022-10-12T04:41:07.502Z,17.70
2022-10-12T04:43:34.231Z,18.88
2022-10-12T04:46:01.003Z,19.10
2022-10-12T04:48:28.067Z,17.65
2022-10-12T04:50:54.801Z,18.00
2022-10-12T04:53:21.904Z,17.83
2022-10-12T04:55:48.672Z,18.73
2022-10-12T04:58:15.440Z,18.80
2022-10-12T05:00:42.205Z,20.27
2022-10-12T05:03:09.011Z,18.17
2022-10-12T05:05:36.204Z,16.17
2022-10-12T05:08:04.392Z,17.85
2022-10-12T05:10:31.554Z,17.10
2022-10-12T05:12:58.341Z,17.92
2022-10-12T05:15:25.209Z,18.40
2022-10-12T05:17:52.102Z,18.45
2022-10-12T05:20:18.917Z,19.58
2022-10-12T05:22:45.675Z,18.42
2022-10-12T05:25:12.524Z,17.63
2022-10-12T05:27:39.590Z,16.60
2022-10-12T05:30:07.403Z,16.00
2022-10-12T05:32:34.364Z,16.20
2022-10-12T05:35:01.158Z,17.35
2022-10-12T05:37:27.975Z,17.52
2022-10-12T05:39:54.750Z,16.90
2022-10-12T05:42:21.483Z,17.60
2022-10-12T05:44:48.215Z,16.73
2022-10-12T05:47:15.208Z,16.92
2022-10-12T05:49:41.963Z,16.92
2022-10-12T05:52:08.764Z,18.35
2022-10-12T05:54:35.504Z,16.77
2022-10-12T05:57:02.246Z,15.60
2022-10-12T05:59:29.103Z,16.98
2022-10-12T06:01:55.873Z,16.10
2022-10-12T06:04:22.676Z,16.67
2022-10-12T06:06:49.408Z,17.67
2022-10-12T06:09:16.161Z,16.45
2022-10-12T06:11:42.923Z,16.20
2022-10-12T06:14:09.648Z,17.55
2022-10-12T06:16:36.426Z,18.67
2022-10-12T06:19:03.512Z,17.88
2022-10-12T06:21:34.507Z,18.00
2022-10-12T06:24:01.990Z,17.65
2022-10-12T06:26:29.301Z,17.33
2022-10-12T06:28:56.437Z,16.85
2022-10-12T06:31:23.314Z,17.40
2022-10-12T06:33:50.973Z,17.75
2022-10-12T06:36:17.867Z,18.83
2022-10-12T06:38:44.618Z,18.23
2022-10-12T06:41:11.748Z,18.25
2022-10-12T06:43:38.511Z,16.88
2022-10-12T06:46:05.613Z,16.58
2022-10-12T06:48:32.344Z,16.88
2022-10-12T06:50:59.099Z,16.13
2022-10-12T06:53:28.735Z,17.70
2022-10-12T06:55:55.599Z,16.13
2022-10-12T06:58:22.389Z,17.70
2022-10-12T07:00:49.198Z,17.33
2022-10-12T07:03:17.597Z,16.90
2022-10-12T07:05:44.360Z,16.23
2022-10-12T07:08:11.152Z,17.50
2022-10-12T07:10:37.890Z,15.43
2022-10-12T07:13:04.796Z,16.65
2022-10-12T07:15:31.537Z,15.68
2022-10-12T07:17:58.271Z,16.60
2022-10-12T07:20:25.046Z,15.32
2022-10-12T07:22:53.534Z,16.15
2022-10-12T07:25:22.287Z,15.63
2022-10-12T07:27:49.470Z,16.02
2022-10-12T07:30:16.372Z,15.73
2022-10-12T07:32:44.491Z,15.55
2022-10-12T07:35:11.339Z,14.07
2022-10-12T07:37:38.496Z,13.52
2022-10-12T07:40:06.034Z,13.65
2022-10-12T07:42:32.786Z,12.73
2022-10-12T07:44:59.528Z,14.13
2022-10-12T07:47:26.273Z,13.65
2022-10-12T07:49:52.995Z,13.63
2022-10-12T07:52:19.755Z,12.27
2022-10-12T07:54:46.502Z,12.73
2022-10-12T07:57:13.245Z,11.90
2022-10-12T07:59:40.068Z,11.55
2022-10-12T08:02:06.949Z,10.23
2022-10-12T08:04:33.771Z,10.80
2022-10-12T08:07:00.617Z,10.20
2022-10-12T08:09:27.514Z,9.73
2022-10-12T08:11:56.041Z,9.75
2022-10-12T08:14:23.060Z,10.05
2022-10-12T08:16:49.767Z,9.25
2022-10-12T08:19:16.552Z,9.77
2022-10-12T08:21:43.455Z,9.02
2022-10-12T08:24:11.780Z,10.35
2022-10-12T08:26:39.200Z,9.00
2022-10-12T08:29:08.063Z,9.02
2022-10-12T08:31:35.168Z,9.35
2022-10-12T08:34:02.128Z,9.48
2022-10-12T08:36:29.030Z,8.90
2022-10-12T08:38:55.960Z,9.13
2022-10-12T08:41:38.522Z,9.20
2022-10-12T08:44:23.840Z,8.93
2022-10-12T08:47:00.145Z,9.25
2022-10-12T08:49:31.275Z,9.52
2022-10-12T08:52:03.326Z,8.35
2022-10-12T08:54:35.132Z,7.82
2022-10-12T08:57:01.921Z,8.27
2022-10-12T08:59:31.627Z,9.23
2022-10-12T09:02:25.775Z,8.70
2022-10-12T09:05:07.431Z,7.78
2022-10-12T09:07:43.089Z,8.10
2022-10-12T09:10:39.011Z,8.57
2022-10-12T09:13:14.012Z,7.68
2022-10-12T09:15:51.540Z,7.35
2022-10-12T09:18:34.968Z,8.43
2022-10-12T09:21:10.025Z,7.47
2022-10-12T09:23:42.100Z,8.18
2022-10-12T09:26:17.617Z,8.13
2022-10-12T09:28:51.676Z,8.07
2022-10-12T09:31:27.296Z,8.07
2022-10-12T09:33:58.921Z,7.95
2022-10-12T09:36:28.712Z,6.90
2022-10-12T09:38:57.894Z,7.28
2022-10-12T09:41:29.914Z,7.07
2022-10-12T09:44:00.104Z,7.70
2022-10-12T09:46:36.288Z,7.82
2022-10-12T09:49:03.074Z,6.65
2022-10-12T09:51:30.704Z,6.68
2022-10-12T09:54:03.552Z,6.80
2022-10-12T09:56:44.412Z,6.85
2022-10-12T09:59:23.353Z,7.20
2022-10-12T10:02:11.500Z,6.72
2022-10-12T10:04:39.182Z,6.88
2022-10-12T10:07:22.863Z,7.60
2022-10-12T10:12:48.741Z,7.20
2022-10-12T10:15:39.196Z,7.05
2022-10-12T10:18:20.832Z,7.78
2022-10-12T10:20:56.369Z,6.38
2022-10-12T10:23:51.492Z,6.22
2022-10-12T10:26:20.508Z,8.05
2022-10-12T10:28:50.268Z,9.02
2022-10-12T10:31:25.048Z,8.10
2022-10-12T10:34:12.181Z,7.68
2022-10-12T10:36:45.426Z,8.07
2022-10-12T10:39:28.688Z,7.93
2022-10-12T10:41:56.163Z,7.22
2022-10-12T10:44:32.332Z,7.85
2022-10-12T10:47:10.043Z,8.45
2022-10-12T10:49:39.336Z,6.88
2022-10-12T10:52:18.538Z,7.28
2022-10-12T10:54:46.020Z,8.13
2022-10-12T10:57:18.371Z,7.85
2022-10-12T10:59:50.090Z,9.18
2022-10-12T11:02:36.130Z,8.57
2022-10-12T11:05:24.667Z,8.25
2022-10-12T11:08:15.331Z,7.60
2022-10-12T11:10:49.915Z,7.65
2022-10-12T11:13:29.248Z,8.57
2022-10-12T11:16:09.372Z,8.63
2022-10-12T11:18:41.991Z,8.15
2022-10-12T11:21:20.051Z,7.57
2022-10-12T11:23:53.618Z,8.98
2022-10-12T11:26:31.551Z,8.18
2022-10-12T11:29:00.459Z,8.52
2022-10-12T11:31:36.557Z,8.50
2022-10-12T11:34:11.244Z,7.78
2022-10-12T11:36:55.852Z,8.18
2022-10-12T11:39:38.306Z,8.63
2022-10-12T11:42:21.333Z,8.25
2022-10-12T11:44:49.043Z,8.30
2022-10-12T11:47:36.711Z,8.93
2022-10-12T11:50:29.078Z,8.50
2022-10-12T11:52:57.971Z,6.50
2022-10-12T11:56:04.321Z,7.78
2022-10-12T11:58:59.350Z,8.57
2022-10-12T12:01:43.266Z,7.55
2022-10-12T12:04:41.865Z,7.82
2022-10-12T12:07:45.445Z,7.32
2022-10-12T12:10:35.974Z,5.57
2022-10-12T12:13:12.912Z,6.40
2022-10-12T12:15:41.981Z,6.35
2022-10-12T12:18:22.322Z,6.57
2022-10-12T12:20:49.086Z,5.60
2022-10-12T12:23:28.641Z,5.80
2022-10-12T12:26:10.652Z,5.25
2022-10-12T12:28:43.404Z,5.05
2022-10-12T12:31:23.445Z,5.70
2022-10-12T12:34:03.458Z,5.60
2022-10-12T12:36:35.531Z,5.30
2022-10-12T12:39:05.027Z,5.70
2022-10-12T12:42:01.656Z,5.00
2022-10-12T12:44:37.904Z,5.45
2022-10-12T12:47:20.574Z,4.68
2022-10-12T12:49:57.859Z,5.15
2022-10-12T12:55:16.166Z,4.43
2022-10-12T12:57:54.903Z,4.68
2022-10-12T13:00:24.317Z,4.38
2022-10-12T13:03:09.329Z,3.80
2022-10-12T13:06:06.404Z,4.53
2022-10-12T13:09:02.244Z,5.32
2022-10-12T13:11:35.066Z,4.15
2022-10-12T13:14:14.179Z,4.22
2022-10-12T13:19:46.159Z,4.50
2022-10-12T13:22:23.175Z,4.15
2022-10-12T13:24:53.885Z,4.35
2022-10-12T13:27:33.926Z,5.05
2022-10-12T13:30:10.983Z,4.60
2022-10-12T13:32:59.252Z,4.70
2022-10-12T13:35:30.848Z,4.90
2022-10-12T13:38:05.774Z,5.35
2022-10-12T13:41:03.207Z,5.45
2022-10-12T13:43:48.573Z,5.00
2022-10-12T13:46:33.988Z,5.35
2022-10-12T13:49:02.008Z,5.25
2022-10-12T13:51:31.106Z,5.43
2022-10-12T13:53:58.279Z,5.40
2022-10-12T13:56:27.688Z,5.32
2022-10-12T13:59:05.366Z,5.82
2022-10-12T14:01:48.038Z,5.68
2022-10-12T14:04:14.869Z,5.70
2022-10-12T14:06:41.660Z,5.10
2022-10-12T14:09:19.784Z,4.97
2022-10-12T14:11:47.267Z,4.80
2022-10-12T14:14:32.457Z,4.63
2022-10-12T14:16:59.763Z,4.75
2022-10-12T14:19:32.862Z,5.10
2022-10-12T14:22:01.186Z,5.30
2022-10-12T14:24:28.333Z,4.78
2022-10-12T14:27:00.659Z,5.32
2022-10-12T14:29:43.300Z,4.95
2022-10-12T14:32:13.133Z,5.33
2022-10-12T14:35:02.503Z,4.90
2022-10-12T14:37:31.027Z,4.60
2022-10-12T14:40:02.365Z,4.43
2022-10-12T14:42:36.357Z,4.70
2022-10-12T14:45:06.274Z,5.00
2022-10-12T14:47:42.899Z,4.78
2022-10-12T14:50:13.892Z,4.53
2022-10-12T14:52:47.955Z,5.13
2022-10-12T14:55:17.368Z,4.93
2022-10-12T14:57:44.693Z,4.80
2022-10-12T15:00:18.914Z,4.68
2022-10-12T15:02:46.436Z,4.50
2022-10-12T15:05:16.316Z,4.63
2022-10-12T15:07:43.227Z,4.25
2022-10-12T15:10:10.642Z,3.85
2022-10-12T15:12:37.783Z,4.25
2022-10-12T15:15:40.393Z,3.55
2022-10-12T15:18:07.790Z,3.92
2022-10-12T15:20:35.559Z,3.72
2022-10-12T15:23:03.173Z,3.47
2022-10-12T15:25:52.955Z,3.80
2022-10-12T15:28:20.991Z,4.15
2022-10-12T15:31:12.169Z,4.00
2022-10-12T15:33:35.046Z,4.47
2022-10-12T15:36:01.924Z,4.65
2022-10-12T15:38:29.236Z,4.50
2022-10-12T15:40:58.126Z,4.07
2022-10-12T15:43:25.806Z,4.15
2022-10-12T15:45:52.862Z,4.35
2022-10-12T15:48:19.691Z,5.30
2022-10-12T15:50:48.743Z,5.18
2022-10-12T15:53:21.187Z,5.95
2022-10-12T15:55:48.059Z,6.03
2022-10-12T15:58:15.582Z,5.30
2022-10-12T16:00:42.609Z,5.40
2022-10-12T16:03:24.300Z,5.38
2022-10-12T16:05:53.446Z,5.78
2022-10-12T16:08:20.305Z,6.75
2022-10-12T16:10:47.841Z,5.80
2022-10-12T16:13:15.088Z,6.75
2022-10-12T16:15:42.534Z,7.40
2022-10-12T16:18:10.161Z,7.38
2022-10-12T16:20:39.196Z,6.88
2022-10-12T16:23:09.405Z,7.13
2022-10-12T16:25:36.260Z,6.50
2022-10-12T16:28:03.165Z,6.78
2022-10-12T16:30:30.120Z,6.20
2022-10-12T16:32:56.891Z,6.45
2022-10-12T16:35:23.790Z,6.72
2022-10-12T16:37:50.688Z,6.72
2022-10-12T16:40:17.540Z,6.82
2022-10-12T16:42:44.359Z,6.65
2022-10-12T16:45:15.803Z,6.35
2022-10-12T16:47:43.170Z,7.60
2022-10-12T16:50:10.390Z,7.22
2022-10-12T16:52:37.200Z,8.32
2022-10-12T16:55:04.811Z,7.40
2022-10-12T16:57:32.006Z,7.38
2022-10-12T16:59:59.511Z,8.18
2022-10-12T17:02:27.808Z,7.82
2022-10-12T17:04:54.702Z,8.70
2022-10-12T17:07:21.541Z,8.82
2022-10-12T17:09:48.862Z,8.80
2022-10-12T17:12:16.110Z,7.40
2022-10-12T17:14:43.311Z,6.20
2022-10-12T17:17:10.068Z,6.85
2022-10-12T17:19:39.719Z,7.60
2022-10-12T17:22:09.458Z,7.43
2022-10-12T17:24:38.890Z,7.18
2022-10-12T17:27:08.351Z,8.30
2022-10-12T17:29:42.059Z,7.07
2022-10-12T17:32:10.595Z,6.55
2022-10-12T17:34:42.348Z,7.93
2022-10-12T17:37:13.504Z,6.40
2022-10-12T17:39:44.152Z,6.88
2022-10-12T17:42:11.398Z,7.90
2022-10-12T17:44:38.348Z,7.85
2022-10-12T17:47:05.416Z,7.95
2022-10-12T17:49:32.325Z,8.25
2022-10-12T17:51:59.117Z,7.30
2022-10-12T17:54:26.862Z,7.45
2022-10-12T17:56:54.985Z,7.13
2022-10-12T17:59:22.272Z,7.18
2022-10-12T18:01:50.433Z,7.68
2022-10-12T18:04:18.018Z,7.80
2022-10-12T18:06:45.707Z,7.07
2022-10-12T18:09:12.746Z,7.30
2022-10-12T18:11:40.123Z,6.88
2022-10-12T18:14:09.460Z,7.78
2022-10-12T18:16:36.912Z,7.07
2022-10-12T18:19:05.947Z,7.57
2022-10-12T18:21:33.697Z,7.85
2022-10-12T18:24:16.059Z,7.63
2022-10-12T18:26:45.455Z,7.90
2022-10-12T18:29:12.359Z,7.35
2022-10-12T18:31:39.384Z,8.95
2022-10-12T18:34:06.635Z,8.63
2022-10-12T18:36:33.846Z,8.70
2022-10-12T18:39:01.977Z,8.75
2022-10-12T18:41:29.272Z,8.77
2022-10-12T18:44:01.173Z,8.60
2022-10-12T18:46:30.196Z,8.40
2022-10-12T18:48:57.051Z,8.07
2022-10-12T18:51:32.112Z,8.20
2022-10-12T18:54:00.683Z,8.50
2022-10-12T18:56:28.331Z,8.00
2022-10-12T18:58:56.803Z,9.13
2022-10-12T19:01:25.669Z,7.57
2022-10-12T19:03:54.486Z,6.85
2022-10-12T19:06:26.856Z,6.82
2022-10-12T19:08:56.273Z,7.05
2022-10-12T19:11:24.665Z,7.65
2022-10-12T19:13:57.009Z,7.07
2022-10-12T19:16:24.262Z,7.20
2022-10-12T19:18:56.809Z,7.57
2022-10-12T19:21:23.910Z,7.80
2022-10-12T19:23:50.738Z,7.78
2022-10-12T19:26:20.320Z,8.27
2022-10-12T19:28:47.209Z,8.55
2022-10-12T19:31:20.622Z,7.75
2022-10-12T19:33:48.002Z,7.53
2022-10-12T19:36:16.378Z,8.30
2022-10-12T19:38:43.398Z,7.68
2022-10-12T19:41:10.154Z,7.55
2022-10-12T19:43:37.854Z,7.55
2022-10-12T19:46:07.330Z,6.88
2022-10-12T19:48:35.449Z,7.22
2022-10-12T19:51:07.863Z,6.78
2022-10-12T19:53:34.948Z,7.75
2022-10-12T19:56:04.460Z,8.65
2022-10-12T19:58:32.146Z,10.13
2022-10-12T20:01:02.855Z,7.93
2022-10-12T20:03:30.659Z,8.75
2022-10-12T20:05:57.908Z,8.98
2022-10-12T20:08:25.401Z,8.15
2022-10-12T20:10:53.200Z,8.32
2022-10-12T20:13:20.364Z,9.13
2022-10-12T20:15:47.076Z,8.38
2022-10-12T20:18:13.882Z,8.88
2022-10-12T20:20:42.442Z,8.85
2022-10-12T20:23:09.455Z,9.25
2022-10-12T20:25:44.576Z,9.32
2022-10-12T20:28:12.350Z,10.25
2022-10-12T20:30:39.666Z,9.15
2022-10-12T20:33:07.522Z,8.88
2022-10-12T20:35:34.774Z,8.70
2022-10-12T20:38:01.845Z,10.60
2022-10-12T20:40:29.976Z,9.57
2022-10-12T20:42:56.853Z,9.48
2022-10-12T20:45:23.582Z,9.57
2022-10-12T20:47:50.408Z,9.75
2022-10-12T20:50:17.402Z,10.18
2022-10-12T20:52:44.267Z,9.23
2022-10-12T20:55:11.308Z,9.68
2022-10-12T20:57:38.227Z,9.88
2022-10-12T21:00:05.959Z,10.35
2022-10-12T21:02:38.073Z,10.75
2022-10-12T21:05:08.680Z,10.30
2022-10-12T21:07:36.108Z,10.27
2022-10-12T21:10:03.143Z,9.00
2022-10-12T21:12:30.749Z,9.10
2022-10-12T21:14:57.544Z,9.70
2022-10-12T21:17:24.276Z,10.48
2022-10-12T21:19:53.609Z,9.30
2022-10-12T21:22:20.769Z,10.02
2022-10-12T21:24:47.706Z,8.85
2022-10-12T21:27:14.424Z,9.50
2022-10-12T21:29:41.211Z,9.10
2022-10-12T21:32:07.987Z,9.35
2022-10-12T21:34:34.836Z,9.02
2022-10-12T21:37:01.576Z,9.38
2022-10-12T21:39:28.567Z,9.13
2022-10-12T21:41:55.292Z,8.68
2022-10-12T21:44:22.074Z,8.65
2022-10-12T21:46:48.807Z,8.95
2022-10-12T21:49:15.547Z,9.43
2022-10-12T21:51:42.581Z,9.23
2022-10-12T21:54:09.407Z,10.52
2022-10-12T21:56:37.233Z,9.50
2022-10-12T21:59:05.525Z,10.90
2022-10-12T22:01:36.191Z,10.45
2022-10-12T22:04:14.089Z,9.70
2022-10-12T22:06:42.173Z,9.57
2022-10-12T22:09:14.124Z,9.07
2022-10-12T22:11:41.067Z,8.90
2022-10-12T22:14:11.125Z,8.90
2022-10-12T22:16:38.132Z,8.93
2022-10-12T22:19:08.522Z,9.60
2022-10-12T22:21:36.292Z,9.45
2022-10-12T22:24:03.786Z,8.65
2022-10-12T22:26:31.166Z,8.63
2022-10-12T22:28:59.840Z,8.45
2022-10-12T22:31:27.215Z,8.63
2022-10-12T22:33:54.927Z,10.10
2022-10-12T22:36:21.654Z,9.35
2022-10-12T22:38:48.453Z,9.65
2022-10-12T22:41:18.197Z,10.48
2022-10-12T22:43:45.168Z,10.40
2022-10-12T22:46:12.113Z,9.98
2022-10-12T22:48:39.099Z,10.25
2022-10-12T22:51:06.910Z,10.77
2022-10-12T22:53:34.675Z,10.25
2022-10-12T22:56:07.823Z,10.68
2022-10-12T22:58:35.319Z,10.82
2022-10-12T23:01:07.575Z,11.63
2022-10-12T23:03:35.304Z,11.10
2022-10-12T23:06:02.638Z,10.35
2022-10-12T23:08:29.766Z,10.50
2022-10-12T23:11:04.765Z,11.75
2022-10-12T23:13:35.162Z,8.93
2022-10-12T23:16:07.651Z,8.55
2022-10-12T23:18:36.096Z,7.40
2022-10-12T23:21:08.537Z,8.43
2022-10-12T23:23:36.463Z,8.70
2022-10-12T23:26:07.079Z,9.45
2022-10-12T23:28:34.200Z,9.60
2022-10-12T23:31:04.278Z,9.45
2022-10-12T23:33:31.083Z,8.10
2022-10-12T23:35:59.405Z,8.68
2022-10-12T23:38:28.470Z,9.32
2022-10-12T23:40:55.400Z,9.98
2022-10-12T23:43:22.248Z,9.82
2022-10-12T23:45:49.139Z,12.20
2022-10-12T23:48:16.100Z,11.27
2022-10-12T23:50:43.380Z,11.45
2022-10-12T23:53:10.722Z,11.48
2022-10-12T23:55:37.549Z,12.15
2022-10-12T23:58:05.122Z,11.50
